PWSweather.com
Personal Weather Stations
Station Observations
ARECO747
Argentina , San Antonio ArecoAR Bs.As

Argentina San Antonio ArecoAR Bs.As

Lat: -34.24447275818, Lon: -59.47654187679

Elevation: 102

Station Type: InformaciĆ³n generada con nuevo Microchip Ethernet conectado a estaciĆ³n WH1081

http://www.meteostar.com.ar

High Low Average
Temperature 93.6°F34.2°C 69.3°F20.7°C 79.4°F26.3°C
Dew Point 71.6°F22.0°C 57.6°F14.2°C 65.5°F18.6°C
Winds 17.4 mph 28.0 kmh 0.7 mph 1.1 kmh 5.0 mph ENE8.0 kmh ENE
Wind Gusts 38.0 mph61.2 kmh -- 10.0 mph16.1 kmh
Humidity 73% 47% 63%
Pressure 29.77 in1008.1 mb 29.57 in1001.4 mb -
Precipitation 0.06 in1.5 mm - -
Hour Temp Dew Point Humidity Winds Wind Gusts Pressure Precip Precip Rate Daily Precip Total
12:01 AM 70.7°F21.5°C 59.5°F15.3°C 68% 3.8 mph ENE6.1 kmh ENE 6.0 mph9.7 kmh 29.76 in1007.8 mb 0.00 in0.0 mm 0.00 in0.0 mm 0.00 in0.0 mm
12:07 AM 70.7°F21.5°C 59.5°F15.3°C 68% 3.8 mph E6.1 kmh E 6.9 mph11.1 kmh 29.76 in1007.8 mb 0.00 in0.0 mm 0.00 in0.0 mm 0.00 in0.0 mm
12:12 AM 70.7°F21.5°C 60.1°F15.6°C 69% 3.8 mph E6.1 kmh E 7.6 mph12.2 kmh 29.76 in1007.8 mb 0.00 in0.0 mm 0.00 in0.0 mm 0.00 in0.0 mm
12:17 AM 70.5°F21.4°C 59.9°F15.5°C 69% 4.5 mph E7.2 kmh E 7.6 mph12.2 kmh 29.76 in1007.8 mb 0.00 in0.0 mm 0.00 in0.0 mm 0.00 in0.0 mm
12:22 AM 70.7°F21.5°C 60.1°F15.6°C 69% 3.8 mph NE6.1 kmh NE 6.9 mph11.1 kmh 29.76 in1007.8 mb 0.00 in0.0 mm 0.00 in0.0 mm 0.00 in0.0 mm
12:27 AM 70.7°F21.5°C 60.1°F15.6°C 69% 3.1 mph E5.0 kmh E 8.3 mph13.4 kmh 29.75 in1007.5 mb 0.00 in0.0 mm 0.00 in0.0 mm 0.00 in0.0 mm
12:32 AM 70.7°F21.5°C 60.1°F15.6°C 69% 3.8 mph E6.1 kmh E 6.9 mph11.1 kmh 29.76 in1007.8 mb 0.00 in0.0 mm 0.00 in0.0 mm 0.00 in0.0 mm
12:38 AM 70.5°F21.4°C 59.9°F15.5°C 69% 4.5 mph ENE7.2 kmh ENE 6.9 mph11.1 kmh 29.75 in1007.5 mb 0.00 in0.0 mm 0.00 in0.0 mm 0.00 in0.0 mm
12:43 AM 70.5°F21.4°C 59.9°F15.5°C 69% 4.5 mph E7.2 kmh E 9.2 mph14.8 kmh 29.75 in1007.5 mb 0.00 in0.0 mm 0.00 in0.0 mm 0.00 in0.0 mm
12:48 AM 70.3°F21.3°C 60.1°F15.6°C 70% 3.8 mph E6.1 kmh E 7.6 mph12.2 kmh 29.75 in1007.5 mb 0.00 in0.0 mm 0.00 in0.0 mm 0.00 in0.0 mm
12:53 AM 70.3°F21.3°C 60.1°F15.6°C 70% 3.1 mph E5.0 kmh E 6.9 mph11.1 kmh 29.75 in1007.5 mb 0.00 in0.0 mm 0.00 in0.0 mm 0.00 in0.0 mm
12:58 AM 70.2°F21.2°C 59.9°F15.5°C 70% 3.8 mph E6.1 kmh E 6.0 mph9.7 kmh 29.75 in1007.5 mb 0.00 in0.0 mm 0.00 in0.0 mm 0.00 in0.0 mm
01:03 AM 70.0°F21.1°C 59.7°F15.4°C 70% 3.8 mph E6.1 kmh E 7.6 mph12.2 kmh 29.75 in1007.5 mb 0.00 in0.0 mm 0.00 in0.0 mm 0.00 in0.0 mm
01:09 AM 70.0°F21.1°C 59.7°F15.4°C 70% 3.8 mph E6.1 kmh E 6.0 mph9.7 kmh 29.75 in1007.5 mb 0.00 in0.0 mm 0.00 in0.0 mm 0.00 in0.0 mm
01:14 AM 70.0°F21.1°C 59.7°F15.4°C 70% 3.1 mph E5.0 kmh E 6.9 mph11.1 kmh 29.75 in1007.5 mb 0.00 in0.0 mm 0.00 in0.0 mm 0.00 in0.0 mm
01:19 AM 70.0°F21.1°C 59.7°F15.4°C 70% 3.8 mph E6.1 kmh E 6.9 mph11.1 kmh 29.75 in1007.5 mb 0.00 in0.0 mm 0.00 in0.0 mm 0.00 in0.0 mm
01:24 AM 69.8°F21.0°C 59.5°F15.3°C 70% 3.1 mph NE5.0 kmh NE 6.9 mph11.1 kmh 29.75 in1007.5 mb 0.00 in0.0 mm 0.00 in0.0 mm 0.00 in0.0 mm
01:29 AM 69.8°F21.0°C 59.5°F15.3°C 70% 3.1 mph SE5.0 kmh SE 6.0 mph9.7 kmh 29.75 in1007.5 mb 0.00 in0.0 mm 0.00 in0.0 mm 0.00 in0.0 mm
01:34 AM 70.0°F21.1°C 59.7°F15.4°C 70% 4.5 mph NE7.2 kmh NE 6.9 mph11.1 kmh 29.75 in1007.5 mb 0.00 in0.0 mm 0.00 in0.0 mm 0.00 in0.0 mm
01:40 AM 70.0°F21.1°C 59.7°F15.4°C 70% 4.5 mph E7.2 kmh E 6.0 mph9.7 kmh 29.75 in1007.5 mb 0.00 in0.0 mm 0.00 in0.0 mm 0.00 in0.0 mm
01:45 AM 70.0°F21.1°C 59.7°F15.4°C 70% 3.8 mph S6.1 kmh S 6.0 mph9.7 kmh 29.75 in1007.5 mb 0.00 in0.0 mm 0.00 in0.0 mm 0.00 in0.0 mm
01:50 AM 69.8°F21.0°C 59.5°F15.3°C 70% 3.8 mph NE6.1 kmh NE 6.9 mph11.1 kmh 29.75 in1007.5 mb 0.00 in0.0 mm 0.00 in0.0 mm 0.00 in0.0 mm
01:55 AM 69.8°F21.0°C 59.5°F15.3°C 70% 3.8 mph ENE6.1 kmh ENE 6.9 mph11.1 kmh 29.75 in1007.5 mb 0.00 in0.0 mm 0.00 in0.0 mm 0.00 in0.0 mm
02:02 AM 69.6°F20.9°C 59.7°F15.4°C 71% 3.8 mph ENE6.1 kmh ENE -- 29.75 in1007.5 mb 0.00 in0.0 mm 0.00 in0.0 mm 0.00 in0.0 mm
02:05 AM 69.6°F20.9°C 59.7°F15.4°C 71% 3.8 mph ENE6.1 kmh ENE -- 29.75 in1007.5 mb 0.00 in0.0 mm 0.00 in0.0 mm 0.00 in0.0 mm
02:10 AM 69.6°F20.9°C 59.7°F15.4°C 71% 3.1 mph E5.0 kmh E 5.4 mph8.7 kmh 29.75 in1007.5 mb 0.00 in0.0 mm 0.00 in0.0 mm 0.00 in0.0 mm
02:15 AM 69.6°F20.9°C 59.7°F15.4°C 71% 3.1 mph E5.0 kmh E 5.4 mph8.7 kmh 29.74 in1007.1 mb 0.00 in0.0 mm 0.00 in0.0 mm 0.00 in0.0 mm
02:20 AM 69.6°F20.9°C 59.7°F15.4°C 71% 2.2 mph E3.5 kmh E 5.4 mph8.7 kmh 29.75 in1007.5 mb 0.00 in0.0 mm 0.00 in0.0 mm 0.00 in0.0 mm
02:25 AM 69.6°F20.9°C 59.7°F15.4°C 71% 3.1 mph E5.0 kmh E 6.0 mph9.7 kmh 29.74 in1007.1 mb 0.00 in0.0 mm 0.00 in0.0 mm 0.00 in0.0 mm
02:30 AM 69.6°F20.9°C 59.7°F15.4°C 71% 3.8 mph E6.1 kmh E 6.9 mph11.1 kmh 29.74 in1007.1 mb 0.00 in0.0 mm 0.00 in0.0 mm 0.00 in0.0 mm
02:36 AM 69.6°F20.9°C 59.7°F15.4°C 71% 3.1 mph E5.0 kmh E 5.4 mph8.7 kmh 29.74 in1007.1 mb 0.00 in0.0 mm 0.00 in0.0 mm 0.00 in0.0 mm
02:41 AM 69.8°F21.0°C 59.2°F15.1°C 69% 3.1 mph ESE5.0 kmh ESE 6.0 mph9.7 kmh 29.74 in1007.1 mb 0.00 in0.0 mm 0.00 in0.0 mm 0.00 in0.0 mm
02:46 AM 69.8°F21.0°C 59.2°F15.1°C 69% 3.8 mph E6.1 kmh E 6.9 mph11.1 kmh 29.73 in1006.8 mb 0.00 in0.0 mm 0.00 in0.0 mm 0.00 in0.0 mm
02:51 AM 70.0°F21.1°C 59.4°F15.2°C 69% 3.8 mph E6.1 kmh E 6.0 mph9.7 kmh 29.74 in1007.1 mb 0.00 in0.0 mm 0.00 in0.0 mm 0.00 in0.0 mm
02:56 AM 70.3°F21.3°C 59.4°F15.2°C 68% 2.2 mph SE3.5 kmh SE 6.0 mph9.7 kmh 29.73 in1006.8 mb 0.00 in0.0 mm 0.00 in0.0 mm 0.00 in0.0 mm
03:01 AM 70.3°F21.3°C 59.4°F15.2°C 68% 3.8 mph E6.1 kmh E 7.6 mph12.2 kmh 29.73 in1006.8 mb 0.00 in0.0 mm 0.00 in0.0 mm 0.00 in0.0 mm
03:07 AM 70.3°F21.3°C 59.4°F15.2°C 68% 5.4 mph E8.7 kmh E 6.9 mph11.1 kmh 29.73 in1006.8 mb 0.00 in0.0 mm 0.00 in0.0 mm 0.00 in0.0 mm
03:12 AM 70.3°F21.3°C 59.4°F15.2°C 68% 3.1 mph NE5.0 kmh NE 6.9 mph11.1 kmh 29.73 in1006.8 mb 0.00 in0.0 mm 0.00 in0.0 mm 0.00 in0.0 mm
03:17 AM 70.3°F21.3°C 59.4°F15.2°C 68% 3.8 mph E6.1 kmh E 6.0 mph9.7 kmh 29.73 in1006.8 mb 0.00 in0.0 mm 0.00 in0.0 mm 0.00 in0.0 mm
03:22 AM 70.3°F21.3°C 59.4°F15.2°C 68% 3.8 mph E6.1 kmh E 6.9 mph11.1 kmh 29.73 in1006.8 mb 0.00 in0.0 mm 0.00 in0.0 mm 0.00 in0.0 mm
03:27 AM 70.2°F21.2°C 59.2°F15.1°C 68% 4.5 mph E7.2 kmh E 6.9 mph11.1 kmh 29.73 in1006.8 mb 0.00 in0.0 mm 0.00 in0.0 mm 0.00 in0.0 mm
03:32 AM 70.2°F21.2°C 59.2°F15.1°C 68% 3.8 mph E6.1 kmh E 6.0 mph9.7 kmh 29.73 in1006.8 mb 0.00 in0.0 mm 0.00 in0.0 mm 0.00 in0.0 mm
03:38 AM 70.2°F21.2°C 58.6°F14.8°C 67% 5.4 mph E8.7 kmh E 6.9 mph11.1 kmh 29.73 in1006.8 mb 0.00 in0.0 mm 0.00 in0.0 mm 0.00 in0.0 mm
03:43 AM 70.2°F21.2°C 58.6°F14.8°C 67% 4.5 mph E7.2 kmh E 6.9 mph11.1 kmh 29.73 in1006.8 mb 0.00 in0.0 mm 0.00 in0.0 mm 0.00 in0.0 mm
03:48 AM 70.3°F21.3°C 58.8°F14.9°C 67% 3.1 mph E5.0 kmh E 6.0 mph9.7 kmh 29.73 in1006.8 mb 0.00 in0.0 mm 0.00 in0.0 mm 0.00 in0.0 mm
03:53 AM 70.3°F21.3°C 58.5°F14.7°C 66% 3.1 mph NE5.0 kmh NE 8.3 mph13.4 kmh 29.73 in1006.8 mb 0.00 in0.0 mm 0.00 in0.0 mm 0.00 in0.0 mm
03:58 AM 70.3°F21.3°C 58.5°F14.7°C 66% 3.1 mph E5.0 kmh E 6.0 mph9.7 kmh 29.73 in1006.8 mb 0.00 in0.0 mm 0.00 in0.0 mm 0.00 in0.0 mm
04:03 AM 70.3°F21.3°C 58.5°F14.7°C 66% 3.1 mph E5.0 kmh E 6.9 mph11.1 kmh 29.73 in1006.8 mb 0.00 in0.0 mm 0.00 in0.0 mm 0.00 in0.0 mm
04:09 AM 70.3°F21.3°C 58.5°F14.7°C 66% 3.8 mph NE6.1 kmh NE 6.0 mph9.7 kmh 29.73 in1006.8 mb 0.00 in0.0 mm 0.00 in0.0 mm 0.00 in0.0 mm
04:14 AM 70.0°F21.1°C 58.1°F14.5°C 66% 3.8 mph SE6.1 kmh SE 6.0 mph9.7 kmh 29.73 in1006.8 mb 0.00 in0.0 mm 0.00 in0.0 mm 0.00 in0.0 mm
04:19 AM 69.8°F21.0°C 57.9°F14.4°C 66% 3.8 mph E6.1 kmh E 6.0 mph9.7 kmh 29.73 in1006.8 mb 0.00 in0.0 mm 0.00 in0.0 mm 0.00 in0.0 mm
04:24 AM 69.8°F21.0°C 57.9°F14.4°C 66% 4.5 mph NE7.2 kmh NE 6.9 mph11.1 kmh 29.73 in1006.8 mb 0.00 in0.0 mm 0.00 in0.0 mm 0.00 in0.0 mm
04:29 AM 69.6°F20.9°C 58.1°F14.5°C 67% 3.1 mph NE5.0 kmh NE 7.6 mph12.2 kmh 29.73 in1006.8 mb 0.00 in0.0 mm 0.00 in0.0 mm 0.00 in0.0 mm
04:34 AM 69.6°F20.9°C 58.1°F14.5°C 67% 6.0 mph E9.7 kmh E 7.6 mph12.2 kmh 29.73 in1006.8 mb 0.00 in0.0 mm 0.00 in0.0 mm 0.00 in0.0 mm
04:40 AM 69.8°F21.0°C 57.9°F14.4°C 66% 3.8 mph ENE6.1 kmh ENE 7.6 mph12.2 kmh 29.74 in1007.1 mb 0.00 in0.0 mm 0.00 in0.0 mm 0.00 in0.0 mm
04:45 AM 69.8°F21.0°C 57.9°F14.4°C 66% 3.1 mph E5.0 kmh E 8.3 mph13.4 kmh 29.74 in1007.1 mb 0.00 in0.0 mm 0.00 in0.0 mm 0.00 in0.0 mm
04:50 AM 69.8°F21.0°C 57.9°F14.4°C 66% 3.1 mph E5.0 kmh E 5.4 mph8.7 kmh 29.74 in1007.1 mb 0.00 in0.0 mm 0.00 in0.0 mm 0.00 in0.0 mm
04:55 AM 69.8°F21.0°C 57.6°F14.2°C 65% 4.5 mph E7.2 kmh E 6.9 mph11.1 kmh 29.74 in1007.1 mb 0.00 in0.0 mm 0.00 in0.0 mm 0.00 in0.0 mm
05:00 AM 69.8°F21.0°C 57.6°F14.2°C 65% 4.5 mph E7.2 kmh E 8.3 mph13.4 kmh 29.75 in1007.5 mb 0.00 in0.0 mm 0.00 in0.0 mm 0.00 in0.0 mm
05:05 AM 69.8°F21.0°C 57.6°F14.2°C 65% 4.5 mph NE7.2 kmh NE 7.6 mph12.2 kmh 29.75 in1007.5 mb 0.00 in0.0 mm 0.00 in0.0 mm 0.00 in0.0 mm
05:11 AM 69.6°F20.9°C 58.1°F14.5°C 67% 2.2 mph E3.5 kmh E 6.9 mph11.1 kmh 29.75 in1007.5 mb 0.00 in0.0 mm 0.00 in0.0 mm 0.00 in0.0 mm
05:16 AM 69.6°F20.9°C 58.1°F14.5°C 67% 5.4 mph E8.7 kmh E 7.6 mph12.2 kmh 29.75 in1007.5 mb 0.00 in0.0 mm 0.00 in0.0 mm 0.00 in0.0 mm
05:21 AM 69.3°F20.7°C 57.9°F14.4°C 67% 3.8 mph NE6.1 kmh NE 7.6 mph12.2 kmh 29.75 in1007.5 mb 0.00 in0.0 mm 0.00 in0.0 mm 0.00 in0.0 mm
05:26 AM 69.3°F20.7°C 57.9°F14.4°C 67% 3.8 mph E6.1 kmh E 6.9 mph11.1 kmh 29.75 in1007.5 mb 0.00 in0.0 mm 0.00 in0.0 mm 0.00 in0.0 mm
05:31 AM 69.3°F20.7°C 58.3°F14.6°C 68% 4.5 mph E7.2 kmh E 7.6 mph12.2 kmh 29.75 in1007.5 mb 0.00 in0.0 mm 0.00 in0.0 mm 0.00 in0.0 mm
05:36 AM 69.3°F20.7°C 58.3°F14.6°C 68% 3.8 mph E6.1 kmh E 6.9 mph11.1 kmh 29.75 in1007.5 mb 0.00 in0.0 mm 0.00 in0.0 mm 0.00 in0.0 mm
05:42 AM 69.3°F20.7°C 58.3°F14.6°C 68% 3.8 mph NE6.1 kmh NE 6.9 mph11.1 kmh 29.75 in1007.5 mb 0.00 in0.0 mm 0.00 in0.0 mm 0.00 in0.0 mm
05:47 AM 69.3°F20.7°C 58.3°F14.6°C 68% 3.8 mph E6.1 kmh E 6.9 mph11.1 kmh 29.75 in1007.5 mb 0.00 in0.0 mm 0.00 in0.0 mm 0.00 in0.0 mm
05:52 AM 69.3°F20.7°C 58.3°F14.6°C 68% 4.5 mph E7.2 kmh E 6.9 mph11.1 kmh 29.75 in1007.5 mb 0.00 in0.0 mm 0.00 in0.0 mm 0.00 in0.0 mm
05:57 AM 69.3°F20.7°C 58.3°F14.6°C 68% 6.0 mph E9.7 kmh E 9.2 mph14.8 kmh 29.75 in1007.5 mb 0.00 in0.0 mm 0.00 in0.0 mm 0.00 in0.0 mm
06:02 AM 69.3°F20.7°C 58.6°F14.8°C 69% 5.4 mph E8.7 kmh E 9.2 mph14.8 kmh 29.75 in1007.5 mb 0.00 in0.0 mm 0.00 in0.0 mm 0.00 in0.0 mm
06:08 AM 69.3°F20.7°C 58.6°F14.8°C 69% 3.8 mph NE6.1 kmh NE 6.0 mph9.7 kmh 29.75 in1007.5 mb 0.00 in0.0 mm 0.00 in0.0 mm 0.00 in0.0 mm
06:13 AM 69.3°F20.7°C 58.6°F14.8°C 69% 3.8 mph NE6.1 kmh NE 6.9 mph11.1 kmh 29.75 in1007.5 mb 0.00 in0.0 mm 0.00 in0.0 mm 0.00 in0.0 mm
06:18 AM 70.0°F21.1°C 59.0°F15.0°C 68% 5.4 mph NE8.7 kmh NE 6.9 mph11.1 kmh 29.75 in1007.5 mb 0.00 in0.0 mm 0.00 in0.0 mm 0.00 in0.0 mm
06:23 AM 70.5°F21.4°C 59.0°F15.0°C 67% 5.4 mph E8.7 kmh E 6.9 mph11.1 kmh 29.75 in1007.5 mb 0.00 in0.0 mm 0.00 in0.0 mm 0.00 in0.0 mm
06:28 AM 70.9°F21.6°C 59.4°F15.2°C 67% 6.9 mph SE11.1 kmh SE 8.3 mph13.4 kmh 29.76 in1007.8 mb 0.00 in0.0 mm 0.00 in0.0 mm 0.00 in0.0 mm
06:33 AM 70.7°F21.5°C 58.8°F14.9°C 66% 3.8 mph NE6.1 kmh NE 7.6 mph12.2 kmh 29.76 in1007.8 mb 0.00 in0.0 mm 0.00 in0.0 mm 0.00 in0.0 mm
06:39 AM 70.3°F21.3°C 58.8°F14.9°C 67% 3.8 mph E6.1 kmh E 7.6 mph12.2 kmh 29.75 in1007.5 mb 0.00 in0.0 mm 0.00 in0.0 mm 0.00 in0.0 mm
06:44 AM 70.2°F21.2°C 59.2°F15.1°C 68% 4.5 mph E7.2 kmh E 7.6 mph12.2 kmh 29.76 in1007.8 mb 0.00 in0.0 mm 0.00 in0.0 mm 0.00 in0.0 mm
06:49 AM 70.2°F21.2°C 59.2°F15.1°C 68% 4.5 mph NE7.2 kmh NE 8.3 mph13.4 kmh 29.75 in1007.5 mb 0.00 in0.0 mm 0.00 in0.0 mm 0.00 in0.0 mm
06:54 AM 71.4°F21.9°C 60.3°F15.7°C 68% 6.0 mph NE9.7 kmh NE 8.3 mph13.4 kmh 29.76 in1007.8 mb 0.00 in0.0 mm 0.00 in0.0 mm 0.00 in0.0 mm
06:59 AM 71.4°F21.9°C 59.9°F15.5°C 67% 3.8 mph E6.1 kmh E 8.3 mph13.4 kmh 29.75 in1007.5 mb 0.00 in0.0 mm 0.00 in0.0 mm 0.00 in0.0 mm
07:04 AM 71.4°F21.9°C 59.9°F15.5°C 67% 6.0 mph E9.7 kmh E 8.3 mph13.4 kmh 29.76 in1007.8 mb 0.00 in0.0 mm 0.00 in0.0 mm 0.00 in0.0 mm
07:10 AM 71.6°F22.0°C 60.1°F15.6°C 67% 4.5 mph E7.2 kmh E 8.3 mph13.4 kmh 29.76 in1007.8 mb 0.00 in0.0 mm 0.00 in0.0 mm 0.00 in0.0 mm
07:15 AM 72.9°F22.7°C 61.3°F16.3°C 67% 3.1 mph E5.0 kmh E 9.2 mph14.8 kmh 29.76 in1007.8 mb 0.00 in0.0 mm 0.00 in0.0 mm 0.00 in0.0 mm
07:20 AM 74.1°F23.4°C 61.5°F16.4°C 65% 3.8 mph NE6.1 kmh NE 8.3 mph13.4 kmh 29.76 in1007.8 mb 0.00 in0.0 mm 0.00 in0.0 mm 0.00 in0.0 mm
07:25 AM 75.2°F24.0°C 61.7°F16.5°C 63% 6.9 mph NE11.1 kmh NE 9.8 mph15.8 kmh 29.76 in1007.8 mb 0.00 in0.0 mm 0.00 in0.0 mm 0.00 in0.0 mm
07:30 AM 75.4°F24.1°C 61.9°F16.6°C 63% 6.9 mph E11.1 kmh E 9.2 mph14.8 kmh 29.77 in1008.1 mb 0.00 in0.0 mm 0.00 in0.0 mm 0.00 in0.0 mm
07:35 AM 75.4°F24.1°C 61.5°F16.4°C 62% 7.6 mph NE12.2 kmh NE 11.4 mph18.3 kmh 29.77 in1008.1 mb 0.00 in0.0 mm 0.00 in0.0 mm 0.00 in0.0 mm
07:41 AM 75.0°F23.9°C 62.1°F16.7°C 64% 5.4 mph NE8.7 kmh NE 11.4 mph18.3 kmh 29.76 in1007.8 mb 0.00 in0.0 mm 0.00 in0.0 mm 0.00 in0.0 mm
07:46 AM 76.3°F24.6°C 62.8°F17.1°C 63% 6.0 mph NE9.7 kmh NE 9.8 mph15.8 kmh 29.77 in1008.1 mb 0.00 in0.0 mm 0.00 in0.0 mm 0.00 in0.0 mm
07:51 AM 76.8°F24.9°C 62.8°F17.1°C 62% 3.8 mph SW6.1 kmh SW 9.2 mph14.8 kmh 29.77 in1008.1 mb 0.00 in0.0 mm 0.00 in0.0 mm 0.00 in0.0 mm
07:56 AM 77.2°F25.1°C 62.6°F17.0°C 61% 5.4 mph NE8.7 kmh NE 11.4 mph18.3 kmh 29.77 in1008.1 mb 0.00 in0.0 mm 0.00 in0.0 mm 0.00 in0.0 mm
08:01 AM 76.8°F24.9°C 62.8°F17.1°C 62% 8.3 mph NNE13.4 kmh NNE 15.9 mph25.6 kmh 29.77 in1008.1 mb 0.00 in0.0 mm 0.00 in0.0 mm 0.00 in0.0 mm
08:06 AM 77.2°F25.1°C 62.6°F17.0°C 61% 6.9 mph 11.1 kmh 12.1 mph19.5 kmh 29.77 in1008.1 mb 0.00 in0.0 mm 0.00 in0.0 mm 0.00 in0.0 mm
08:12 AM 77.4°F25.2°C 62.8°F17.1°C 61% 3.1 mph NE5.0 kmh NE 10.7 mph17.2 kmh 29.76 in1007.8 mb 0.00 in0.0 mm 0.00 in0.0 mm 0.00 in0.0 mm
08:17 AM 77.9°F25.5°C 63.3°F17.4°C 61% 6.9 mph NE11.1 kmh NE 12.1 mph19.5 kmh 29.76 in1007.8 mb 0.00 in0.0 mm 0.00 in0.0 mm 0.00 in0.0 mm
08:22 AM 78.8°F26.0°C 63.7°F17.6°C 60% 7.6 mph NE12.2 kmh NE 10.7 mph17.2 kmh 29.77 in1008.1 mb 0.00 in0.0 mm 0.00 in0.0 mm 0.00 in0.0 mm
08:27 AM 79.0°F26.1°C 63.9°F17.7°C 60% 6.0 mph NE9.7 kmh NE 11.4 mph18.3 kmh 29.77 in1008.1 mb 0.00 in0.0 mm 0.00 in0.0 mm 0.00 in0.0 mm
08:32 AM 79.5°F26.4°C 64.4°F18.0°C 60% 8.3 mph NE13.4 kmh NE 15.9 mph25.6 kmh 29.77 in1008.1 mb 0.00 in0.0 mm 0.00 in0.0 mm 0.00 in0.0 mm
08:37 AM 79.3°F26.3°C 64.2°F17.9°C 60% 6.0 mph E9.7 kmh E 13.6 mph21.9 kmh 29.77 in1008.1 mb 0.00 in0.0 mm 0.00 in0.0 mm 0.00 in0.0 mm
08:43 AM 80.1°F26.7°C 64.9°F18.3°C 60% 9.2 mph NE14.8 kmh NE 13.6 mph21.9 kmh 29.76 in1007.8 mb 0.00 in0.0 mm 0.00 in0.0 mm 0.00 in0.0 mm
08:48 AM 80.4°F26.9°C 65.3°F18.5°C 60% 4.5 mph NE7.2 kmh NE 13.6 mph21.9 kmh 29.76 in1007.8 mb 0.00 in0.0 mm 0.00 in0.0 mm 0.00 in0.0 mm
08:53 AM 81.5°F27.5°C 65.8°F18.8°C 59% 3.8 mph NE6.1 kmh NE 10.7 mph17.2 kmh 29.76 in1007.8 mb 0.00 in0.0 mm 0.00 in0.0 mm 0.00 in0.0 mm
08:58 AM 82.0°F27.8°C 65.8°F18.8°C 58% 3.8 mph NE6.1 kmh NE 9.8 mph15.8 kmh 29.76 in1007.8 mb 0.00 in0.0 mm 0.00 in0.0 mm 0.00 in0.0 mm
09:03 AM 82.0°F27.8°C 65.8°F18.8°C 58% 5.4 mph 8.7 kmh 11.4 mph18.3 kmh 29.76 in1007.8 mb 0.00 in0.0 mm 0.00 in0.0 mm 0.00 in0.0 mm
09:08 AM 81.5°F27.5°C 65.8°F18.8°C 59% 3.8 mph NE6.1 kmh NE 10.7 mph17.2 kmh 29.76 in1007.8 mb 0.00 in0.0 mm 0.00 in0.0 mm 0.00 in0.0 mm
09:14 AM 82.6°F28.1°C 65.8°F18.8°C 57% 6.9 mph NE11.1 kmh NE 9.8 mph15.8 kmh 29.75 in1007.5 mb 0.00 in0.0 mm 0.00 in0.0 mm 0.00 in0.0 mm
09:19 AM 83.3°F28.5°C 66.6°F19.2°C 57% 6.0 mph NE9.7 kmh NE 9.8 mph15.8 kmh 29.76 in1007.8 mb 0.00 in0.0 mm 0.00 in0.0 mm 0.00 in0.0 mm
09:24 AM 83.8°F28.8°C 66.9°F19.4°C 57% 3.8 mph NE6.1 kmh NE 10.7 mph17.2 kmh 29.76 in1007.8 mb 0.00 in0.0 mm 0.00 in0.0 mm 0.00 in0.0 mm
09:29 AM 83.5°F28.6°C 66.6°F19.2°C 57% 8.3 mph 13.4 kmh 13.0 mph20.9 kmh 29.75 in1007.5 mb 0.00 in0.0 mm 0.00 in0.0 mm 0.00 in0.0 mm
09:42 AM 83.7°F28.7°C 67.3°F19.6°C 58% 9.2 mph 14.8 kmh 11.4 mph18.3 kmh 29.75 in1007.5 mb 0.00 in0.0 mm 0.00 in0.0 mm 0.00 in0.0 mm
09:47 AM 84.6°F29.2°C 67.1°F19.5°C 56% 9.2 mph NNE14.8 kmh NNE 14.5 mph23.3 kmh 29.75 in1007.5 mb 0.00 in0.0 mm 0.00 in0.0 mm 0.00 in0.0 mm
09:52 AM 83.8°F28.8°C 66.9°F19.4°C 57% 4.5 mph ENE7.2 kmh ENE 14.5 mph23.3 kmh 29.75 in1007.5 mb 0.00 in0.0 mm 0.00 in0.0 mm 0.00 in0.0 mm
09:57 AM 84.4°F29.1°C 66.9°F19.4°C 56% 7.6 mph S12.2 kmh S 11.4 mph18.3 kmh 29.75 in1007.5 mb 0.00 in0.0 mm 0.00 in0.0 mm 0.00 in0.0 mm
10:02 AM 84.9°F29.4°C 67.5°F19.7°C 56% 6.0 mph NE9.7 kmh NE 11.4 mph18.3 kmh 29.75 in1007.5 mb 0.00 in0.0 mm 0.00 in0.0 mm 0.00 in0.0 mm
10:07 AM 85.5°F29.7°C 68.0°F20.0°C 56% 8.3 mph NNE13.4 kmh NNE 11.4 mph18.3 kmh 29.75 in1007.5 mb 0.00 in0.0 mm 0.00 in0.0 mm 0.00 in0.0 mm
10:13 AM 85.6°F29.8°C 67.6°F19.8°C 55% 3.8 mph NE6.1 kmh NE 12.1 mph19.5 kmh 29.75 in1007.5 mb 0.00 in0.0 mm 0.00 in0.0 mm 0.00 in0.0 mm
10:18 AM 86.7°F30.4°C 67.5°F19.7°C 53% 7.6 mph NE12.2 kmh NE 9.8 mph15.8 kmh 29.75 in1007.5 mb 0.00 in0.0 mm 0.00 in0.0 mm 0.00 in0.0 mm
10:23 AM 86.4°F30.2°C 67.3°F19.6°C 53% 6.9 mph NE11.1 kmh NE 12.1 mph19.5 kmh 29.75 in1007.5 mb 0.00 in0.0 mm 0.00 in0.0 mm 0.00 in0.0 mm
10:28 AM 85.3°F29.6°C 67.8°F19.9°C 56% 7.6 mph NE12.2 kmh NE 15.2 mph24.5 kmh 29.75 in1007.5 mb 0.00 in0.0 mm 0.00 in0.0 mm 0.00 in0.0 mm
10:33 AM 84.7°F29.3°C 67.8°F19.9°C 57% 6.0 mph NE9.7 kmh NE 12.1 mph19.5 kmh 29.75 in1007.5 mb 0.00 in0.0 mm 0.00 in0.0 mm 0.00 in0.0 mm
10:38 AM 84.4°F29.1°C 67.5°F19.7°C 57% 4.5 mph NE7.2 kmh NE 13.6 mph21.9 kmh 29.75 in1007.5 mb 0.00 in0.0 mm 0.00 in0.0 mm 0.00 in0.0 mm
10:44 AM 84.4°F29.1°C 67.5°F19.7°C 57% 7.6 mph 12.2 kmh 9.8 mph15.8 kmh 29.75 in1007.5 mb 0.00 in0.0 mm 0.00 in0.0 mm 0.00 in0.0 mm
10:49 AM 84.2°F29.0°C 67.8°F19.9°C 58% 6.0 mph NE9.7 kmh NE 12.1 mph19.5 kmh 29.75 in1007.5 mb 0.00 in0.0 mm 0.00 in0.0 mm 0.00 in0.0 mm
10:54 AM 85.1°F29.5°C 68.7°F20.4°C 58% 4.5 mph 7.2 kmh 10.7 mph17.2 kmh 29.75 in1007.5 mb 0.00 in0.0 mm 0.00 in0.0 mm 0.00 in0.0 mm
10:59 AM 85.6°F29.8°C 68.7°F20.4°C 57% 5.4 mph NE8.7 kmh NE 10.7 mph17.2 kmh 29.75 in1007.5 mb 0.00 in0.0 mm 0.00 in0.0 mm 0.00 in0.0 mm
11:04 AM 85.3°F29.6°C 67.8°F19.9°C 56% 7.6 mph NE12.2 kmh NE 13.0 mph20.9 kmh 29.74 in1007.1 mb 0.00 in0.0 mm 0.00 in0.0 mm 0.00 in0.0 mm
11:09 AM 84.7°F29.3°C 67.8°F19.9°C 57% 8.3 mph 13.4 kmh 12.1 mph19.5 kmh 29.74 in1007.1 mb 0.00 in0.0 mm 0.00 in0.0 mm 0.00 in0.0 mm
11:15 AM 85.1°F29.5°C 68.7°F20.4°C 58% 6.0 mph NE9.7 kmh NE 10.7 mph17.2 kmh 29.74 in1007.1 mb 0.00 in0.0 mm 0.00 in0.0 mm 0.00 in0.0 mm
11:20 AM 85.3°F29.6°C 68.4°F20.2°C 57% 5.4 mph NE8.7 kmh NE 10.7 mph17.2 kmh 29.74 in1007.1 mb 0.00 in0.0 mm 0.00 in0.0 mm 0.00 in0.0 mm
11:25 AM 85.6°F29.8°C 68.7°F20.4°C 57% 5.4 mph 8.7 kmh 9.8 mph15.8 kmh 29.74 in1007.1 mb 0.00 in0.0 mm 0.00 in0.0 mm 0.00 in0.0 mm
11:30 AM 85.6°F29.8°C 68.7°F20.4°C 57% 6.9 mph WNW11.1 kmh WNW 12.1 mph19.5 kmh 29.74 in1007.1 mb 0.00 in0.0 mm 0.00 in0.0 mm 0.00 in0.0 mm
11:35 AM 85.6°F29.8°C 68.7°F20.4°C 57% 6.9 mph ENE11.1 kmh ENE 13.0 mph20.9 kmh 29.74 in1007.1 mb 0.00 in0.0 mm 0.00 in0.0 mm 0.00 in0.0 mm
11:40 AM 85.6°F29.8°C 68.7°F20.4°C 57% 6.9 mph 11.1 kmh 9.8 mph15.8 kmh 29.73 in1006.8 mb 0.00 in0.0 mm 0.00 in0.0 mm 0.00 in0.0 mm
11:46 AM 85.6°F29.8°C 69.1°F20.6°C 58% 6.9 mph NNE11.1 kmh NNE 12.1 mph19.5 kmh 29.73 in1006.8 mb 0.00 in0.0 mm 0.00 in0.0 mm 0.00 in0.0 mm
11:51 AM 85.8°F29.9°C 69.8°F21.0°C 59% 3.1 mph NE5.0 kmh NE 9.8 mph15.8 kmh 29.73 in1006.8 mb 0.00 in0.0 mm 0.00 in0.0 mm 0.00 in0.0 mm
11:56 AM 86.9°F30.5°C 69.3°F20.7°C 56% 5.4 mph 8.7 kmh 10.7 mph17.2 kmh 29.73 in1006.8 mb 0.00 in0.0 mm 0.00 in0.0 mm 0.00 in0.0 mm
12:01 PM 86.2°F30.1°C 68.7°F20.4°C 56% 5.4 mph 8.7 kmh 13.6 mph21.9 kmh 29.73 in1006.8 mb 0.00 in0.0 mm 0.00 in0.0 mm 0.00 in0.0 mm
12:06 PM 86.0°F30.0°C 68.9°F20.5°C 57% 6.0 mph 9.7 kmh 15.9 mph25.6 kmh 29.73 in1006.8 mb 0.00 in0.0 mm 0.00 in0.0 mm 0.00 in0.0 mm
12:11 PM 86.7°F30.4°C 69.6°F20.9°C 57% 5.4 mph NW8.7 kmh NW 10.7 mph17.2 kmh 29.73 in1006.8 mb 0.00 in0.0 mm 0.00 in0.0 mm 0.00 in0.0 mm
12:17 PM 87.3°F30.7°C 69.6°F20.9°C 56% 4.5 mph NW7.2 kmh NW 10.7 mph17.2 kmh 29.72 in1006.4 mb 0.00 in0.0 mm 0.00 in0.0 mm 0.00 in0.0 mm
12:22 PM 87.8°F31.0°C 69.6°F20.9°C 55% 5.4 mph E8.7 kmh E 9.2 mph14.8 kmh 29.72 in1006.4 mb 0.00 in0.0 mm 0.00 in0.0 mm 0.00 in0.0 mm
12:27 PM 88.2°F31.2°C 69.4°F20.8°C 54% 5.4 mph NE8.7 kmh NE 10.7 mph17.2 kmh 29.72 in1006.4 mb 0.00 in0.0 mm 0.00 in0.0 mm 0.00 in0.0 mm
12:32 PM 88.5°F31.4°C 69.8°F21.0°C 54% 6.0 mph NE9.7 kmh NE 11.4 mph18.3 kmh 29.72 in1006.4 mb 0.00 in0.0 mm 0.00 in0.0 mm 0.00 in0.0 mm
12:37 PM 90.0°F32.2°C 70.5°F21.4°C 53% 6.0 mph E9.7 kmh E 11.4 mph18.3 kmh 29.71 in1006.1 mb 0.00 in0.0 mm 0.00 in0.0 mm 0.00 in0.0 mm
12:42 PM 89.2°F31.8°C 69.8°F21.0°C 53% 6.0 mph 9.7 kmh 12.1 mph19.5 kmh 29.71 in1006.1 mb 0.00 in0.0 mm 0.00 in0.0 mm 0.00 in0.0 mm
12:48 PM 89.2°F31.8°C 69.8°F21.0°C 53% 9.2 mph 14.8 kmh 14.5 mph23.3 kmh 29.71 in1006.1 mb 0.00 in0.0 mm 0.00 in0.0 mm 0.00 in0.0 mm
12:53 PM 89.2°F31.8°C 69.8°F21.0°C 53% 7.6 mph NE12.2 kmh NE 14.5 mph23.3 kmh 29.71 in1006.1 mb 0.00 in0.0 mm 0.00 in0.0 mm 0.00 in0.0 mm
12:58 PM 89.2°F31.8°C 69.8°F21.0°C 53% 4.5 mph NE7.2 kmh NE 13.0 mph20.9 kmh 29.71 in1006.1 mb 0.00 in0.0 mm 0.00 in0.0 mm 0.00 in0.0 mm
01:03 PM 91.0°F32.8°C 70.9°F21.6°C 52% 6.9 mph 11.1 kmh 9.8 mph15.8 kmh 29.70 in1005.8 mb 0.00 in0.0 mm 0.00 in0.0 mm 0.00 in0.0 mm
01:08 PM 91.0°F32.8°C 70.9°F21.6°C 52% 7.6 mph NE12.2 kmh NE 14.5 mph23.3 kmh 29.70 in1005.8 mb 0.00 in0.0 mm 0.00 in0.0 mm 0.00 in0.0 mm
01:13 PM 90.5°F32.5°C 70.5°F21.4°C 52% 6.9 mph NE11.1 kmh NE 11.4 mph18.3 kmh 29.70 in1005.8 mb 0.00 in0.0 mm 0.00 in0.0 mm 0.00 in0.0 mm
01:19 PM 90.5°F32.5°C 70.5°F21.4°C 52% 8.3 mph NE13.4 kmh NE 13.0 mph20.9 kmh 29.70 in1005.8 mb 0.00 in0.0 mm 0.00 in0.0 mm 0.00 in0.0 mm
01:24 PM 90.5°F32.5°C 70.5°F21.4°C 52% 7.6 mph 12.2 kmh 11.4 mph18.3 kmh 29.69 in1005.4 mb 0.00 in0.0 mm 0.00 in0.0 mm 0.00 in0.0 mm
01:29 PM 91.6°F33.1°C 70.9°F21.6°C 51% 5.4 mph ENE8.7 kmh ENE 9.8 mph15.8 kmh 29.69 in1005.4 mb 0.00 in0.0 mm 0.00 in0.0 mm 0.00 in0.0 mm
01:34 PM 91.9°F33.3°C 71.2°F21.8°C 51% 7.6 mph E12.2 kmh E 10.7 mph17.2 kmh 29.68 in1005.1 mb 0.00 in0.0 mm 0.00 in0.0 mm 0.00 in0.0 mm
01:39 PM 91.8°F33.2°C 71.1°F21.7°C 51% 6.0 mph NE9.7 kmh NE 10.7 mph17.2 kmh 29.68 in1005.1 mb 0.00 in0.0 mm 0.00 in0.0 mm 0.00 in0.0 mm
01:44 PM 91.0°F32.8°C 70.9°F21.6°C 52% 6.0 mph NE9.7 kmh NE 12.1 mph19.5 kmh 29.68 in1005.1 mb 0.00 in0.0 mm 0.00 in0.0 mm 0.00 in0.0 mm
01:50 PM 91.2°F32.9°C 71.1°F21.7°C 52% 3.8 mph 6.1 kmh 9.8 mph15.8 kmh 29.68 in1005.1 mb 0.00 in0.0 mm 0.00 in0.0 mm 0.00 in0.0 mm
01:55 PM 92.3°F33.5°C 71.6°F22.0°C 51% 6.0 mph NE9.7 kmh NE 9.8 mph15.8 kmh 29.68 in1005.1 mb 0.00 in0.0 mm 0.00 in0.0 mm 0.00 in0.0 mm
02:00 PM 92.3°F33.5°C 70.9°F21.6°C 50% 5.4 mph 8.7 kmh 9.8 mph15.8 kmh 29.68 in1005.1 mb 0.00 in0.0 mm 0.00 in0.0 mm 0.00 in0.0 mm
02:05 PM 92.3°F33.5°C 70.9°F21.6°C 50% 5.4 mph E8.7 kmh E 9.8 mph15.8 kmh 29.68 in1005.1 mb 0.00 in0.0 mm 0.00 in0.0 mm 0.00 in0.0 mm
02:10 PM 92.1°F33.4°C 70.9°F21.6°C 50% 8.3 mph NNE13.4 kmh NNE 11.4 mph18.3 kmh 29.67 in1004.7 mb 0.00 in0.0 mm 0.00 in0.0 mm 0.00 in0.0 mm
02:15 PM 92.1°F33.4°C 71.4°F21.9°C 51% 5.4 mph 8.7 kmh 11.4 mph18.3 kmh 29.68 in1005.1 mb 0.00 in0.0 mm 0.00 in0.0 mm 0.00 in0.0 mm
02:21 PM 92.1°F33.4°C 70.9°F21.6°C 50% 5.4 mph 8.7 kmh 9.8 mph15.8 kmh 29.67 in1004.7 mb 0.00 in0.0 mm 0.00 in0.0 mm 0.00 in0.0 mm
02:26 PM 92.8°F33.8°C 71.4°F21.9°C 50% 6.0 mph 9.7 kmh 11.4 mph18.3 kmh 29.67 in1004.7 mb 0.00 in0.0 mm 0.00 in0.0 mm 0.00 in0.0 mm
02:31 PM 93.2°F34.0°C 71.2°F21.8°C 49% 9.2 mph NE14.8 kmh NE 11.4 mph18.3 kmh 29.67 in1004.7 mb 0.00 in0.0 mm 0.00 in0.0 mm 0.00 in0.0 mm
02:36 PM 93.2°F34.0°C 70.5°F21.4°C 48% 5.4 mph NE8.7 kmh NE 11.4 mph18.3 kmh 29.67 in1004.7 mb 0.00 in0.0 mm 0.00 in0.0 mm 0.00 in0.0 mm
02:41 PM 93.6°F34.2°C 71.6°F22.0°C 49% 6.9 mph E11.1 kmh E 13.0 mph20.9 kmh 29.66 in1004.4 mb 0.00 in0.0 mm 0.00 in0.0 mm 0.00 in0.0 mm
02:47 PM 93.4°F34.1°C 70.2°F21.2°C 47% 8.3 mph ENE13.4 kmh ENE 14.5 mph23.3 kmh 29.67 in1004.7 mb 0.00 in0.0 mm 0.00 in0.0 mm 0.00 in0.0 mm
02:52 PM 92.3°F33.5°C 70.3°F21.3°C 49% 6.0 mph NE9.7 kmh NE 13.6 mph21.9 kmh 29.66 in1004.4 mb 0.00 in0.0 mm 0.00 in0.0 mm 0.00 in0.0 mm
02:57 PM 92.8°F33.8°C 71.4°F21.9°C 50% 5.4 mph NE8.7 kmh NE 10.7 mph17.2 kmh 29.66 in1004.4 mb 0.00 in0.0 mm 0.00 in0.0 mm 0.00 in0.0 mm
03:02 PM 92.3°F33.5°C 70.9°F21.6°C 50% 4.5 mph NW7.2 kmh NW 12.1 mph19.5 kmh 29.66 in1004.4 mb 0.00 in0.0 mm 0.00 in0.0 mm 0.00 in0.0 mm
03:07 PM 91.8°F33.2°C 71.1°F21.7°C 51% 10.7 mph NE17.2 kmh NE 12.1 mph19.5 kmh 29.66 in1004.4 mb 0.00 in0.0 mm 0.00 in0.0 mm 0.00 in0.0 mm
03:12 PM 91.2°F32.9°C 71.1°F21.7°C 52% 8.3 mph 13.4 kmh 12.1 mph19.5 kmh 29.65 in1004.1 mb 0.00 in0.0 mm 0.00 in0.0 mm 0.00 in0.0 mm
03:18 PM 91.2°F32.9°C 70.5°F21.4°C 51% 9.8 mph NE15.8 kmh NE 15.2 mph24.5 kmh 29.65 in1004.1 mb 0.00 in0.0 mm 0.00 in0.0 mm 0.00 in0.0 mm
03:23 PM 90.1°F32.3°C 70.2°F21.2°C 52% 13.6 mph E21.9 kmh E 16.8 mph27.0 kmh 29.65 in1004.1 mb 0.00 in0.0 mm 0.00 in0.0 mm 0.00 in0.0 mm
03:28 PM 89.2°F31.8°C 70.3°F21.3°C 54% 3.8 mph 6.1 kmh 16.8 mph27.0 kmh 29.65 in1004.1 mb 0.00 in0.0 mm 0.00 in0.0 mm 0.00 in0.0 mm
03:33 PM 89.2°F31.8°C 70.3°F21.3°C 54% 9.2 mph NE14.8 kmh NE 13.6 mph21.9 kmh 29.65 in1004.1 mb 0.00 in0.0 mm 0.00 in0.0 mm 0.00 in0.0 mm
03:38 PM 90.1°F32.3°C 70.2°F21.2°C 52% 8.3 mph NE13.4 kmh NE 13.6 mph21.9 kmh 29.65 in1004.1 mb 0.00 in0.0 mm 0.00 in0.0 mm 0.00 in0.0 mm
03:43 PM 90.3°F32.4°C 70.3°F21.3°C 52% 7.6 mph 12.2 kmh 14.5 mph23.3 kmh 29.64 in1003.7 mb 0.00 in0.0 mm 0.00 in0.0 mm 0.00 in0.0 mm
03:49 PM 90.3°F32.4°C 70.3°F21.3°C 52% 5.4 mph NE8.7 kmh NE 13.0 mph20.9 kmh 29.64 in1003.7 mb 0.00 in0.0 mm 0.00 in0.0 mm 0.00 in0.0 mm
03:54 PM 92.1°F33.4°C 71.4°F21.9°C 51% 6.0 mph 9.7 kmh 12.1 mph19.5 kmh 29.63 in1003.4 mb 0.00 in0.0 mm 0.00 in0.0 mm 0.00 in0.0 mm
03:59 PM 92.1°F33.4°C 71.4°F21.9°C 51% 6.9 mph 11.1 kmh 13.6 mph21.9 kmh 29.63 in1003.4 mb 0.00 in0.0 mm 0.00 in0.0 mm 0.00 in0.0 mm
04:04 PM 91.9°F33.3°C 70.7°F21.5°C 50% 6.9 mph NNE11.1 kmh NNE 13.6 mph21.9 kmh 29.63 in1003.4 mb 0.00 in0.0 mm 0.00 in0.0 mm 0.00 in0.0 mm
04:09 PM 91.8°F33.2°C 71.1°F21.7°C 51% 11.4 mph 18.3 kmh 15.2 mph24.5 kmh 29.63 in1003.4 mb 0.00 in0.0 mm 0.00 in0.0 mm 0.00 in0.0 mm
04:14 PM 90.1°F32.3°C 70.7°F21.5°C 53% 6.9 mph NE11.1 kmh NE 16.8 mph27.0 kmh 29.64 in1003.7 mb 0.00 in0.0 mm 0.00 in0.0 mm 0.00 in0.0 mm
04:20 PM 91.2°F32.9°C 71.6°F22.0°C 53% 7.6 mph NE12.2 kmh NE 11.4 mph18.3 kmh 29.64 in1003.7 mb 0.00 in0.0 mm 0.00 in0.0 mm 0.00 in0.0 mm
04:25 PM 92.3°F33.5°C 70.9°F21.6°C 50% 6.9 mph NW11.1 kmh NW 15.9 mph25.6 kmh 29.63 in1003.4 mb 0.00 in0.0 mm 0.00 in0.0 mm 0.00 in0.0 mm
04:30 PM 91.8°F33.2°C 71.1°F21.7°C 51% 8.3 mph NE13.4 kmh NE 15.9 mph25.6 kmh 29.63 in1003.4 mb 0.00 in0.0 mm 0.00 in0.0 mm 0.00 in0.0 mm
04:35 PM 90.5°F32.5°C 70.5°F21.4°C 52% 7.6 mph E12.2 kmh E 17.4 mph28.0 kmh 29.63 in1003.4 mb 0.00 in0.0 mm 0.00 in0.0 mm 0.00 in0.0 mm
04:40 PM 89.2°F31.8°C 70.3°F21.3°C 54% 7.6 mph ENE12.2 kmh ENE 16.8 mph27.0 kmh 29.63 in1003.4 mb 0.00 in0.0 mm 0.00 in0.0 mm 0.00 in0.0 mm
04:46 PM 87.3°F30.7°C 68.5°F20.3°C 54% 17.4 mph 28.0 kmh 38.0 mph61.2 kmh 29.64 in1003.7 mb 0.00 in0.0 mm 0.00 in0.0 mm 0.00 in0.0 mm
04:51 PM 83.5°F28.6°C 67.6°F19.8°C 59% 12.1 mph 19.5 kmh 22.8 mph36.7 kmh 29.65 in1004.1 mb 0.00 in0.0 mm 0.00 in0.0 mm 0.00 in0.0 mm
04:56 PM 81.7°F27.6°C 67.5°F19.7°C 62% 11.4 mph 18.3 kmh 20.6 mph33.2 kmh 29.65 in1004.1 mb 0.00 in0.0 mm 0.00 in0.0 mm 0.00 in0.0 mm
05:06 PM 78.1°F25.6°C 65.8°F18.8°C 66% 11.4 mph 18.3 kmh 16.8 mph27.0 kmh 29.64 in1003.7 mb 0.04 in1.0 mm 0.05 in1.3 mm 0.04 in1.0 mm
05:11 PM 76.6°F24.8°C 66.2°F19.0°C 70% 12.1 mph 19.5 kmh 22.1 mph35.6 kmh 29.63 in1003.4 mb 0.04 in1.0 mm 0.00 in0.0 mm 0.04 in1.0 mm
05:17 PM 76.8°F24.9°C 66.2°F19.0°C 70% 11.4 mph 18.3 kmh 22.1 mph35.6 kmh 29.63 in1003.4 mb 0.04 in1.0 mm 0.00 in0.0 mm 0.04 in1.0 mm
05:22 PM 77.2°F25.1°C 66.2°F19.0°C 69% 12.1 mph NNE19.5 kmh NNE 19.0 mph30.6 kmh 29.63 in1003.4 mb 0.04 in1.0 mm 0.00 in0.0 mm 0.06 in1.5 mm
05:27 PM 78.1°F25.6°C 66.7°F19.3°C 68% 4.5 mph 7.2 kmh 19.0 mph30.6 kmh 29.63 in1003.4 mb 0.06 in1.5 mm 0.24 in6.1 mm 0.06 in1.5 mm
05:32 PM 79.9°F26.6°C 67.5°F19.7°C 66% 8.3 mph NNW13.4 kmh NNW 13.6 mph21.9 kmh 29.61 in1002.7 mb 0.06 in1.5 mm 0.00 in0.0 mm 0.06 in1.5 mm
05:37 PM 80.4°F26.9°C 67.6°F19.8°C 65% 6.9 mph NE11.1 kmh NE 16.8 mph27.0 kmh 29.61 in1002.7 mb 0.06 in1.5 mm 0.00 in0.0 mm 0.06 in1.5 mm
05:42 PM 81.0°F27.2°C 67.6°F19.8°C 64% 3.8 mph E6.1 kmh E 13.0 mph20.9 kmh 29.61 in1002.7 mb 0.06 in1.5 mm 0.00 in0.0 mm 0.06 in1.5 mm
05:48 PM 81.9°F27.7°C 68.0°F20.0°C 63% 6.9 mph 11.1 kmh 10.7 mph17.2 kmh 29.61 in1002.7 mb 0.06 in1.5 mm 0.00 in0.0 mm 0.06 in1.5 mm
05:53 PM 81.9°F27.7°C 67.6°F19.8°C 62% 10.7 mph 17.2 kmh 13.6 mph21.9 kmh 29.60 in1002.4 mb 0.06 in1.5 mm 0.00 in0.0 mm 0.06 in1.5 mm
05:58 PM 81.1°F27.3°C 66.9°F19.4°C 62% 5.4 mph E8.7 kmh E 14.5 mph23.3 kmh 29.60 in1002.4 mb 0.06 in1.5 mm 0.00 in0.0 mm 0.06 in1.5 mm
06:03 PM 80.8°F27.1°C 66.9°F19.4°C 63% 2.2 mph NE3.5 kmh NE 9.2 mph14.8 kmh 29.60 in1002.4 mb 0.06 in1.5 mm 0.00 in0.0 mm 0.06 in1.5 mm
06:08 PM 80.6°F27.0°C 67.3°F19.6°C 64% 3.8 mph ENE6.1 kmh ENE 8.3 mph13.4 kmh 29.59 in1002.0 mb 0.02 in0.5 mm 0.00 in0.0 mm 0.06 in1.5 mm
06:13 PM 80.6°F27.0°C 67.3°F19.6°C 64% 4.5 mph ESE7.2 kmh ESE 9.2 mph14.8 kmh 29.60 in1002.4 mb 0.02 in0.5 mm 0.00 in0.0 mm 0.06 in1.5 mm
06:19 PM 80.2°F26.8°C 67.8°F19.9°C 66% 3.8 mph E6.1 kmh E 8.3 mph13.4 kmh 29.61 in1002.7 mb 0.02 in0.5 mm 0.00 in0.0 mm 0.06 in1.5 mm
06:24 PM 80.1°F26.7°C 68.2°F20.1°C 67% 3.8 mph NNW6.1 kmh NNW 9.2 mph14.8 kmh 29.60 in1002.4 mb 0.00 in0.0 mm 0.00 in0.0 mm 0.06 in1.5 mm
06:29 PM 79.9°F26.6°C 68.4°F20.2°C 68% 6.0 mph 9.7 kmh 10.7 mph17.2 kmh 29.59 in1002.0 mb 0.00 in0.0 mm 0.00 in0.0 mm 0.06 in1.5 mm
06:34 PM 79.9°F26.6°C 68.4°F20.2°C 68% 5.4 mph 8.7 kmh 12.1 mph19.5 kmh 29.59 in1002.0 mb 0.00 in0.0 mm 0.00 in0.0 mm 0.06 in1.5 mm
06:39 PM 79.7°F26.5°C 68.2°F20.1°C 68% 4.5 mph 7.2 kmh 9.2 mph14.8 kmh 29.61 in1002.7 mb 0.00 in0.0 mm 0.00 in0.0 mm 0.06 in1.5 mm
06:45 PM 79.9°F26.6°C 68.4°F20.2°C 68% 3.8 mph NW6.1 kmh NW 6.9 mph11.1 kmh 29.62 in1003.0 mb 0.00 in0.0 mm 0.00 in0.0 mm 0.06 in1.5 mm
06:50 PM 80.1°F26.7°C 68.5°F20.3°C 68% 4.5 mph 7.2 kmh 6.9 mph11.1 kmh 29.61 in1002.7 mb 0.00 in0.0 mm 0.00 in0.0 mm 0.06 in1.5 mm
06:55 PM 80.2°F26.8°C 68.7°F20.4°C 68% 4.5 mph NW7.2 kmh NW 6.0 mph9.7 kmh 29.61 in1002.7 mb 0.00 in0.0 mm 0.00 in0.0 mm 0.06 in1.5 mm
07:00 PM 80.6°F27.0°C 68.2°F20.1°C 66% 3.8 mph NE6.1 kmh NE 8.3 mph13.4 kmh 29.61 in1002.7 mb 0.00 in0.0 mm 0.00 in0.0 mm 0.06 in1.5 mm
07:05 PM 81.1°F27.3°C 68.7°F20.4°C 66% 4.5 mph 7.2 kmh 8.3 mph13.4 kmh 29.60 in1002.4 mb 0.00 in0.0 mm 0.00 in0.0 mm 0.06 in1.5 mm
07:10 PM 81.5°F27.5°C 69.1°F20.6°C 66% 6.0 mph 9.7 kmh 11.4 mph18.3 kmh 29.59 in1002.0 mb 0.00 in0.0 mm 0.00 in0.0 mm 0.06 in1.5 mm
07:16 PM 81.9°F27.7°C 69.4°F20.8°C 66% 7.6 mph 12.2 kmh 11.4 mph18.3 kmh 29.59 in1002.0 mb 0.00 in0.0 mm 0.00 in0.0 mm 0.06 in1.5 mm
07:21 PM 82.0°F27.8°C 69.6°F20.9°C 66% 3.8 mph NW6.1 kmh NW 12.1 mph19.5 kmh 29.58 in1001.7 mb 0.00 in0.0 mm 0.00 in0.0 mm 0.06 in1.5 mm
07:26 PM 82.4°F28.0°C 69.4°F20.8°C 65% 6.9 mph 11.1 kmh 9.8 mph15.8 kmh 29.58 in1001.7 mb 0.00 in0.0 mm 0.00 in0.0 mm 0.06 in1.5 mm
07:31 PM 82.4°F28.0°C 69.4°F20.8°C 65% 3.1 mph E5.0 kmh E 9.8 mph15.8 kmh 29.57 in1001.4 mb 0.00 in0.0 mm 0.00 in0.0 mm 0.06 in1.5 mm
07:36 PM 82.6°F28.1°C 69.1°F20.6°C 64% 4.5 mph NW7.2 kmh NW 11.4 mph18.3 kmh 29.58 in1001.7 mb 0.00 in0.0 mm 0.00 in0.0 mm 0.06 in1.5 mm
07:41 PM 82.4°F28.0°C 69.1°F20.6°C 64% 6.0 mph 9.7 kmh 15.9 mph25.6 kmh 29.58 in1001.7 mb 0.00 in0.0 mm 0.00 in0.0 mm 0.06 in1.5 mm
07:47 PM 82.0°F27.8°C 69.1°F20.6°C 65% 6.9 mph 11.1 kmh 14.5 mph23.3 kmh 29.58 in1001.7 mb 0.00 in0.0 mm 0.00 in0.0 mm 0.06 in1.5 mm
07:52 PM 81.9°F27.7°C 69.4°F20.8°C 66% 8.3 mph NE13.4 kmh NE 13.0 mph20.9 kmh 29.58 in1001.7 mb 0.00 in0.0 mm 0.00 in0.0 mm 0.06 in1.5 mm
07:57 PM 81.5°F27.5°C 69.1°F20.6°C 66% 6.0 mph E9.7 kmh E 13.0 mph20.9 kmh 29.59 in1002.0 mb 0.00 in0.0 mm 0.00 in0.0 mm 0.06 in1.5 mm
08:02 PM 81.1°F27.3°C 69.1°F20.6°C 67% 5.4 mph NE8.7 kmh NE 9.8 mph15.8 kmh 29.59 in1002.0 mb 0.00 in0.0 mm 0.00 in0.0 mm 0.06 in1.5 mm
08:07 PM 81.0°F27.2°C 68.9°F20.5°C 67% 5.4 mph 8.7 kmh 11.4 mph18.3 kmh 29.60 in1002.4 mb 0.00 in0.0 mm 0.00 in0.0 mm 0.06 in1.5 mm
08:12 PM 80.8°F27.1°C 69.3°F20.7°C 68% 5.4 mph ENE8.7 kmh ENE 9.8 mph15.8 kmh 29.60 in1002.4 mb 0.00 in0.0 mm 0.00 in0.0 mm 0.06 in1.5 mm
08:18 PM 80.6°F27.0°C 69.1°F20.6°C 68% 4.5 mph NE7.2 kmh NE 8.3 mph13.4 kmh 29.61 in1002.7 mb 0.00 in0.0 mm 0.00 in0.0 mm 0.06 in1.5 mm
08:23 PM 80.4°F26.9°C 69.3°F20.7°C 69% 3.8 mph 6.1 kmh 10.7 mph17.2 kmh 29.62 in1003.0 mb 0.00 in0.0 mm 0.00 in0.0 mm 0.06 in1.5 mm
08:28 PM 80.2°F26.8°C 69.6°F20.9°C 70% 3.8 mph 6.1 kmh 6.9 mph11.1 kmh 29.62 in1003.0 mb 0.00 in0.0 mm 0.00 in0.0 mm 0.06 in1.5 mm
08:33 PM 80.2°F26.8°C 69.6°F20.9°C 70% 3.8 mph 6.1 kmh 6.9 mph11.1 kmh 29.62 in1003.0 mb 0.00 in0.0 mm 0.00 in0.0 mm 0.06 in1.5 mm
08:38 PM 80.2°F26.8°C 69.6°F20.9°C 70% 2.2 mph NE3.5 kmh NE 6.9 mph11.1 kmh 29.63 in1003.4 mb 0.00 in0.0 mm 0.00 in0.0 mm 0.06 in1.5 mm
08:43 PM 80.1°F26.7°C 69.4°F20.8°C 70% 2.2 mph 3.5 kmh 6.9 mph11.1 kmh 29.63 in1003.4 mb 0.00 in0.0 mm 0.00 in0.0 mm 0.06 in1.5 mm
08:49 PM 79.9°F26.6°C 69.3°F20.7°C 70% 1.6 mph NE2.6 kmh NE 6.0 mph9.7 kmh 29.63 in1003.4 mb 0.00 in0.0 mm 0.00 in0.0 mm 0.06 in1.5 mm
08:54 PM 79.7°F26.5°C 69.1°F20.6°C 70% 3.1 mph NE5.0 kmh NE 6.0 mph9.7 kmh 29.63 in1003.4 mb 0.00 in0.0 mm 0.00 in0.0 mm 0.06 in1.5 mm
08:59 PM 79.7°F26.5°C 68.5°F20.3°C 69% 4.5 mph E7.2 kmh E 5.4 mph8.7 kmh 29.64 in1003.7 mb 0.00 in0.0 mm 0.00 in0.0 mm 0.06 in1.5 mm
09:04 PM 79.5°F26.4°C 68.5°F20.3°C 69% 3.8 mph NE6.1 kmh NE 5.4 mph8.7 kmh 29.65 in1004.1 mb 0.00 in0.0 mm 0.00 in0.0 mm 0.06 in1.5 mm
09:09 PM 79.5°F26.4°C 68.5°F20.3°C 69% 0.7 mph E1.1 kmh E 5.4 mph8.7 kmh 29.65 in1004.1 mb 0.00 in0.0 mm 0.00 in0.0 mm 0.06 in1.5 mm
09:14 PM 79.2°F26.2°C 68.2°F20.1°C 69% 1.6 mph 2.6 kmh 3.1 mph5.0 kmh 29.65 in1004.1 mb 0.00 in0.0 mm 0.00 in0.0 mm 0.06 in1.5 mm
09:20 PM 79.2°F26.2°C 68.2°F20.1°C 69% 1.6 mph NE2.6 kmh NE 4.5 mph7.2 kmh 29.65 in1004.1 mb 0.00 in0.0 mm 0.00 in0.0 mm 0.06 in1.5 mm
09:25 PM 79.0°F26.1°C 68.0°F20.0°C 69% 1.6 mph NNE2.6 kmh NNE 4.5 mph7.2 kmh 29.65 in1004.1 mb 0.00 in0.0 mm 0.00 in0.0 mm 0.06 in1.5 mm
09:30 PM 79.0°F26.1°C 68.0°F20.0°C 69% 1.6 mph E2.6 kmh E 4.5 mph7.2 kmh 29.65 in1004.1 mb 0.00 in0.0 mm 0.00 in0.0 mm 0.06 in1.5 mm
09:35 PM 78.8°F26.0°C 68.2°F20.1°C 70% 3.8 mph 6.1 kmh 5.4 mph8.7 kmh 29.65 in1004.1 mb 0.00 in0.0 mm 0.00 in0.0 mm 0.06 in1.5 mm
09:40 PM 78.8°F26.0°C 68.2°F20.1°C 70% 2.2 mph NE3.5 kmh NE 6.0 mph9.7 kmh 29.65 in1004.1 mb 0.00 in0.0 mm 0.00 in0.0 mm 0.06 in1.5 mm
09:45 PM 78.6°F25.9°C 68.4°F20.2°C 71% 4.5 mph 7.2 kmh 7.6 mph12.2 kmh 29.65 in1004.1 mb 0.00 in0.0 mm 0.00 in0.0 mm 0.06 in1.5 mm
09:51 PM 78.6°F25.9°C 68.4°F20.2°C 71% 3.1 mph ENE5.0 kmh ENE 9.2 mph14.8 kmh 29.66 in1004.4 mb 0.00 in0.0 mm 0.00 in0.0 mm 0.06 in1.5 mm
09:56 PM 78.6°F25.9°C 68.4°F20.2°C 71% 2.2 mph NE3.5 kmh NE 6.9 mph11.1 kmh 29.65 in1004.1 mb 0.00 in0.0 mm 0.00 in0.0 mm 0.06 in1.5 mm
10:01 PM 78.6°F25.9°C 68.4°F20.2°C 71% 3.8 mph NNW6.1 kmh NNW 5.4 mph8.7 kmh 29.66 in1004.4 mb 0.00 in0.0 mm 0.00 in0.0 mm 0.06 in1.5 mm
10:06 PM 78.6°F25.9°C 68.4°F20.2°C 71% 3.1 mph 5.0 kmh 5.4 mph8.7 kmh 29.66 in1004.4 mb 0.00 in0.0 mm 0.00 in0.0 mm 0.06 in1.5 mm
10:11 PM 78.6°F25.9°C 68.4°F20.2°C 71% 3.1 mph NE5.0 kmh NE 6.0 mph9.7 kmh 29.66 in1004.4 mb 0.00 in0.0 mm 0.00 in0.0 mm 0.06 in1.5 mm
10:16 PM 78.1°F25.6°C 67.8°F19.9°C 71% 2.2 mph NE3.5 kmh NE 6.9 mph11.1 kmh 29.66 in1004.4 mb 0.00 in0.0 mm 0.00 in0.0 mm 0.06 in1.5 mm
10:22 PM 78.1°F25.6°C 67.8°F19.9°C 71% 3.8 mph 6.1 kmh 5.4 mph8.7 kmh 29.66 in1004.4 mb 0.00 in0.0 mm 0.00 in0.0 mm 0.06 in1.5 mm
10:27 PM 78.1°F25.6°C 67.8°F19.9°C 71% 3.1 mph ENE5.0 kmh ENE 5.4 mph8.7 kmh 29.66 in1004.4 mb 0.00 in0.0 mm 0.00 in0.0 mm 0.06 in1.5 mm
10:32 PM 78.1°F25.6°C 67.8°F19.9°C 71% 3.1 mph NE5.0 kmh NE 6.0 mph9.7 kmh 29.66 in1004.4 mb 0.00 in0.0 mm 0.00 in0.0 mm 0.06 in1.5 mm
10:37 PM 78.1°F25.6°C 67.8°F19.9°C 71% 3.8 mph 6.1 kmh 6.0 mph9.7 kmh 29.66 in1004.4 mb 0.00 in0.0 mm 0.00 in0.0 mm 0.06 in1.5 mm
10:42 PM 78.1°F25.6°C 68.4°F20.2°C 72% 3.1 mph NE5.0 kmh NE 6.0 mph9.7 kmh 29.66 in1004.4 mb 0.00 in0.0 mm 0.00 in0.0 mm 0.06 in1.5 mm
10:47 PM 77.9°F25.5°C 68.2°F20.1°C 72% 4.5 mph NE7.2 kmh NE 6.9 mph11.1 kmh 29.66 in1004.4 mb 0.00 in0.0 mm 0.00 in0.0 mm 0.06 in1.5 mm
10:53 PM 77.9°F25.5°C 68.2°F20.1°C 72% 3.1 mph E5.0 kmh E 7.6 mph12.2 kmh 29.66 in1004.4 mb 0.00 in0.0 mm 0.00 in0.0 mm 0.06 in1.5 mm
10:58 PM 77.9°F25.5°C 68.2°F20.1°C 72% 3.1 mph E5.0 kmh E 6.9 mph11.1 kmh 29.67 in1004.7 mb 0.00 in0.0 mm 0.00 in0.0 mm 0.06 in1.5 mm
11:03 PM 77.9°F25.5°C 68.2°F20.1°C 72% 3.8 mph E6.1 kmh E 6.0 mph9.7 kmh 29.66 in1004.4 mb 0.00 in0.0 mm 0.00 in0.0 mm 0.06 in1.5 mm
11:08 PM 77.7°F25.4°C 68.0°F20.0°C 72% 3.8 mph NE6.1 kmh NE 6.0 mph9.7 kmh 29.66 in1004.4 mb 0.00 in0.0 mm 0.00 in0.0 mm 0.06 in1.5 mm
11:13 PM 77.7°F25.4°C 68.0°F20.0°C 72% 3.8 mph NE6.1 kmh NE 9.2 mph14.8 kmh 29.66 in1004.4 mb 0.00 in0.0 mm 0.00 in0.0 mm 0.06 in1.5 mm
11:18 PM 77.7°F25.4°C 68.0°F20.0°C 72% 4.5 mph NE7.2 kmh NE 8.3 mph13.4 kmh 29.66 in1004.4 mb 0.00 in0.0 mm 0.00 in0.0 mm 0.06 in1.5 mm
11:24 PM 77.5°F25.3°C 67.8°F19.9°C 72% 3.8 mph 6.1 kmh 6.9 mph11.1 kmh 29.67 in1004.7 mb 0.00 in0.0 mm 0.00 in0.0 mm 0.06 in1.5 mm
11:29 PM 77.5°F25.3°C 68.2°F20.1°C 73% 4.5 mph NE7.2 kmh NE 8.3 mph13.4 kmh 29.67 in1004.7 mb 0.00 in0.0 mm 0.00 in0.0 mm 0.06 in1.5 mm
11:34 PM 77.7°F25.4°C 68.4°F20.2°C 73% 4.5 mph E7.2 kmh E 9.2 mph14.8 kmh 29.67 in1004.7 mb 0.00 in0.0 mm 0.00 in0.0 mm 0.06 in1.5 mm
11:39 PM 77.7°F25.4°C 68.4°F20.2°C 73% 4.5 mph SE7.2 kmh SE 8.3 mph13.4 kmh 29.67 in1004.7 mb 0.00 in0.0 mm 0.00 in0.0 mm 0.06 in1.5 mm
11:44 PM 77.7°F25.4°C 68.4°F20.2°C 73% 5.4 mph 8.7 kmh 7.6 mph12.2 kmh 29.67 in1004.7 mb 0.00 in0.0 mm 0.00 in0.0 mm 0.06 in1.5 mm
11:49 PM 77.7°F25.4°C 68.4°F20.2°C 73% 6.0 mph 9.7 kmh 10.7 mph17.2 kmh 29.68 in1005.1 mb 0.00 in0.0 mm 0.00 in0.0 mm 0.06 in1.5 mm
11:55 PM 77.7°F25.4°C 68.4°F20.2°C 73% 3.8 mph NE6.1 kmh NE 11.4 mph18.3 kmh 29.68 in1005.1 mb 0.00 in0.0 mm 0.00 in0.0 mm 0.06 in1.5 mm